Time;durP1;ratioP1;P1;durP2;ratioP2;P2;SDS_P1;SDS_P2;PMS_P1;PMS_P2;Temp;Humidity;BMP_temperature;BMP_pressure;BME280_temperature;BME280_humidity;BME280_pressure;Samples;Min_cycle;Max_cycle;Signal;HPM_P1;HPM_P2
2021/10/05 00:00:31;;;;;;;;;2.00;1.00;;;;;19.64;56.37;100824.09;5057656;28;45226;-46
2021/10/05 00:02:57;;;;;;;;;2.00;2.00;;;;;19.65;56.33;100822.31;5057330;28;46248;-53
2021/10/05 00:05:22;;;;;;;;;3.67;1.00;;;;;19.63;56.19;100817.00;5057520;28;45208;-48
2021/10/05 00:07:49;;;;;;;;;1.33;1.33;;;;;19.65;56.34;100817.00;5057659;28;45310;-54
2021/10/05 00:10:14;;;;;;;;;2.00;2.00;;;;;19.64;56.15;100815.22;5057618;28;45497;-50
2021/10/05 00:12:40;;;;;;;;;2.00;2.00;;;;;19.64;56.37;100809.88;5057292;28;46386;-48
2021/10/05 00:15:08;;;;;;;;;2.33;1.67;;;;;19.64;56.05;100799.22;5057296;28;45337;-48
2021/10/05 00:17:33;;;;;;;;;3.33;2.00;;;;;19.64;56.27;100796.53;5057495;28;45452;-52
2021/10/05 00:19:59;;;;;;;;;3.33;2.00;;;;;19.63;56.26;100801.00;5057551;28;45424;-49
2021/10/05 00:22:25;;;;;;;;;2.00;2.00;;;;;19.64;56.15;100792.09;5056610;28;45679;-55
2021/10/05 00:24:51;;;;;;;;;3.00;3.00;;;;;19.64;55.95;100788.53;5057200;28;45330;-46
2021/10/05 00:27:16;;;;;;;;;2.00;2.00;;;;;19.63;56.15;100787.66;5059366;28;45483;-51
2021/10/05 00:29:41;;;;;;;;;3.33;2.00;;;;;19.63;55.91;100787.66;5060559;28;45405;-53
2021/10/05 00:32:07;;;;;;;;;2.00;2.00;;;;;19.63;55.95;100792.13;5060162;28;46087;-49
2021/10/05 00:34:33;;;;;;;;;2.00;2.00;;;;;19.62;56.00;100779.69;5060652;28;45475;-46
2021/10/05 00:36:58;;;;;;;;;3.33;2.00;;;;;19.63;56.00;100778.81;5060756;28;45279;-49
2021/10/05 00:39:25;;;;;;;;;3.00;2.00;;;;;19.63;55.79;100785.00;5060648;28;45496;-47
2021/10/05 00:41:51;;;;;;;;;2.67;1.33;;;;;19.62;55.92;100780.59;5060121;28;47209;-47
2021/10/05 00:44:36;;;;;;;;;2.00;1.00;;;;;19.62;55.73;100775.25;5060153;28;45298;-48
2021/10/05 00:47:06;;;;;;;;;4.00;2.00;;;;;19.63;55.75;100776.13;5060679;28;45420;-56
2021/10/05 00:49:33;;;;;;;;;2.00;2.00;;;;;19.62;56.01;100767.25;5060404;28;45219;-46
2021/10/05 00:52:01;;;;;;;;;3.00;2.00;;;;;19.62;55.95;100756.59;5060124;28;47220;-48
2021/10/05 00:54:30;;;;;;;;;2.00;2.00;;;;;19.63;55.72;100757.47;5060099;28;45339;-53
2021/10/05 00:56:55;;;;;;;;;3.67;1.00;;;;;19.61;55.72;100760.16;5060193;28;45434;-54
2021/10/05 00:59:21;;;;;;;;;3.67;2.00;;;;;19.62;55.60;100755.69;5060534;28;45462;-61
2021/10/05 01:01:46;;;;;;;;;3.33;3.00;;;;;19.62;55.64;100748.59;5059870;28;46122;-58
2021/10/05 01:04:12;;;;;;;;;3.00;1.33;;;;;19.62;55.59;100742.38;5060414;28;45267;-56
2021/10/05 01:06:53;;;;;;;;;4.67;2.00;;;;;19.62;55.60;100743.25;5060194;28;45212;-57
2021/10/05 01:09:19;;;;;;;;;1.33;1.33;;;;;19.61;55.54;100735.25;5060306;28;45390;-47
2021/10/05 01:11:44;;;;;;;;;3.33;3.00;;;;;19.61;55.73;100735.25;5059603;28;46346;-47
2021/10/05 01:14:09;;;;;;;;;2.00;2.00;;;;;19.61;55.46;100736.16;5059975;28;45291;-49
2021/10/05 01:16:35;;;;;;;;;1.67;1.67;;;;;19.61;55.70;100728.16;5059956;28;45303;-54
2021/10/05 01:19:00;;;;;;;;;3.00;1.00;;;;;19.61;55.58;100722.81;5060108;28;45335;-48
2021/10/05 01:21:26;;;;;;;;;2.00;2.00;;;;;19.62;55.61;100715.69;5059652;28;45988;-54
2021/10/05 01:23:51;;;;;;;;;1.67;1.67;;;;;19.62;55.49;100715.69;5060037;28;45525;-52
2021/10/05 01:26:16;;;;;;;;;1.33;1.33;;;;;19.62;55.36;100699.72;5059929;28;45420;-59
2021/10/05 01:28:42;;;;;;;;;1.00;1.00;;;;;19.61;55.31;100705.94;5059835;28;45219;-51
2021/10/05 01:31:07;;;;;;;;;3.00;2.00;;;;;19.61;55.45;100698.81;5059596;28;46068;-52
2021/10/05 01:33:32;;;;;;;;;1.67;1.67;;;;;19.61;55.26;100693.50;5059653;28;45567;-49
2021/10/05 01:35:58;;;;;;;;;1.00;1.00;;;;;19.61;55.43;100689.94;5059707;28;45208;-49
2021/10/05 01:38:24;;;;;;;;;2.00;2.00;;;;;19.61;55.41;100682.81;5059638;28;45272;-56
2021/10/05 01:40:49;;;;;;;;;2.67;2.00;;;;;19.61;55.20;100679.28;5059102;28;46441;-59
2021/10/05 01:43:15;;;;;;;;;2.67;1.67;;;;;19.61;55.35;100682.81;5059745;28;45282;-53
2021/10/05 01:45:40;;;;;;;;;1.33;1.33;;;;;19.61;55.65;100679.28;5059680;28;45385;-55
2021/10/05 01:48:07;;;;;;;;;3.67;3.00;;;;;19.62;55.20;100670.38;5059744;28;45436;-57
2021/10/05 01:50:34;;;;;;;;;3.00;3.00;;;;;19.61;55.18;100661.50;5059143;28;47541;-47
2021/10/05 01:53:01;;;;;;;;;2.00;2.00;;;;;19.60;55.19;100654.41;5059175;28;45385;-56
2021/10/05 01:55:26;;;;;;;;;2.00;2.00;;;;;19.60;55.49;100649.09;5059385;28;45365;-49
2021/10/05 01:57:52;;;;;;;;;2.00;1.00;;;;;19.60;55.33;100646.41;5059400;28;45362;-51
2021/10/05 02:00:18;;;;;;;;;2.67;2.00;;;;;19.61;55.17;100639.28;5058904;28;46120;-53
2021/10/05 02:02:43;;;;;;;;;4.00;2.00;;;;;19.60;55.20;100643.75;5058972;28;45596;-58
2021/10/05 02:05:09;;;;;;;;;2.00;2.00;;;;;19.60;55.43;100643.75;5059110;28;45233;-50
2021/10/05 02:07:36;;;;;;;;;2.00;2.00;;;;;19.60;55.31;100632.19;5058146;28;45314;-47
2021/10/05 02:10:03;;;;;;;;;3.00;1.00;;;;;19.61;55.39;100633.94;5059023;28;46195;-50
2021/10/05 02:12:28;;;;;;;;;4.00;1.67;;;;;19.59;55.52;100617.09;5058733;28;45298;-58
2021/10/05 02:14:55;;;;;;;;;2.67;2.67;;;;;19.60;55.16;100613.53;5058942;28;45342;-56
2021/10/05 02:17:20;;;;;;;;;1.33;1.33;;;;;19.60;55.40;100605.53;5059095;28;45524;-49
2021/10/05 02:19:46;;;;;;;;;2.00;2.00;;;;;19.61;55.26;100601.94;5058806;28;46104;-49
2021/10/05 02:22:12;;;;;;;;;1.00;1.00;;;;;19.59;54.94;100591.31;5058765;28;45226;-52
2021/10/05 02:24:42;;;;;;;;;2.00;2.00;;;;;19.60;55.10;100586.88;5058869;28;45228;-61
2021/10/05 02:27:18;;;;;;;;;1.67;1.67;;;;;19.60;55.37;100593.09;5058874;28;45341;-58
2021/10/05 02:29:45;;;;;;;;;3.00;3.00;;;;;19.60;55.20;100589.53;5058265;28;46213;-59
2021/10/05 02:32:12;;;;;;;;;2.00;1.00;;;;;19.59;55.30;100583.31;5058214;28;45433;-49
2021/10/05 02:34:38;;;;;;;;;2.00;2.00;;;;;19.59;55.36;100571.78;5058760;28;45215;-57
2021/10/05 02:37:04;;;;;;;;;1.33;1.33;;;;;19.59;55.30;100571.78;5059054;28;45176;-56
2021/10/05 02:39:31;;;;;;;;;4.00;1.00;;;;;19.59;55.36;100566.44;5058492;28;46360;-56
2021/10/05 02:41:56;;;;;;;;;2.00;2.00;;;;;19.58;55.25;100554.94;5058137;28;45276;-49
2021/10/05 02:44:22;;;;;;;;;2.00;2.00;;;;;19.59;55.23;100562.00;5058566;28;45296;-52
2021/10/05 02:46:47;;;;;;;;;2.67;2.00;;;;;19.60;55.18;100549.53;5058729;28;45318;-54
2021/10/05 02:49:13;;;;;;;;;1.00;1.00;;;;;19.59;55.06;100555.78;5057567;28;46943;-54
2021/10/05 02:51:39;;;;;;;;;2.33;1.67;;;;;19.59;55.33;100534.44;5058390;28;45440;-58
2021/10/05 02:54:05;;;;;;;;;1.67;1.00;;;;;19.59;55.23;100529.13;5058372;28;45408;-59
2021/10/05 02:56:31;;;;;;;;;3.67;1.00;;;;;19.59;55.25;100526.44;5058503;28;45341;-53
2021/10/05 02:58:56;;;;;;;;;1.00;1.00;;;;;19.59;55.05;100513.13;5058069;28;45248;-59
2021/10/05 03:01:21;;;;;;;;;1.00;1.00;;;;;19.59;55.13;100516.66;5057598;28;45367;-59
2021/10/05 03:03:47;;;;;;;;;1.00;1.00;;;;;19.59;55.20;100505.13;5058455;28;45495;-62
2021/10/05 03:06:13;;;;;;;;;0.00;0.00;;;;;19.59;55.17;100518.44;5058433;28;45231;-57
2021/10/05 03:08:41;;;;;;;;;1.00;1.00;;;;;19.58;55.08;100520.25;5058144;28;46320;-56
2021/10/05 03:11:07;;;;;;;;;2.00;1.00;;;;;19.59;55.08;100515.78;5058144;28;45349;-48
2021/10/05 03:13:35;;;;;;;;;1.67;1.33;;;;;19.58;54.84;100503.38;5058025;28;45310;-58
2021/10/05 03:16:08;;;;;;;;;2.00;0.67;;;;;19.58;55.20;100506.94;5058554;28;45473;-58
2021/10/05 03:18:34;;;;;;;;;4.00;1.67;;;;;19.59;55.03;100507.78;5057679;28;46460;-55
2021/10/05 03:21:00;;;;;;;;;1.67;1.00;;;;;19.58;55.14;100496.28;5057908;28;45571;-59
2021/10/05 03:23:25;;;;;;;;;1.00;1.00;;;;;19.59;55.23;100489.13;5058210;28;45339;-52
2021/10/05 03:25:51;;;;;;;;;0.67;0.67;;;;;19.59;55.05;100486.47;5058243;28;45415;-61
2021/10/05 03:28:16;;;;;;;;;2.33;1.00;;;;;19.58;55.08;100471.38;5057711;28;46084;-49
2021/10/05 03:30:42;;;;;;;;;1.00;1.00;;;;;19.59;54.98;100483.78;5057955;28;45313;-56
2021/10/05 03:33:07;;;;;;;;;1.00;1.00;;;;;19.58;54.77;100480.28;5057704;28;45727;-55
2021/10/05 03:35:33;;;;;;;;;1.00;1.00;;;;;19.58;54.76;100468.72;5058083;28;45240;-59
2021/10/05 03:37:58;;;;;;;;;1.33;0.00;;;;;19.59;55.05;100462.47;5057715;28;47160;-57
2021/10/05 03:40:23;;;;;;;;;1.00;1.00;;;;;19.58;55.11;100452.72;5057633;28;45576;-58
2021/10/05 03:42:49;;;;;;;;;0.33;0.33;;;;;19.59;55.03;100449.13;5057759;28;45200;-63
2021/10/05 03:45:15;;;;;;;;;0.67;0.67;;;;;19.58;55.08;100448.28;5058106;28;45133;-56
2021/10/05 03:47:40;;;;;;;;;4.00;1.00;;;;;19.58;55.24;100431.41;5057495;28;46464;-60
2021/10/05 03:50:08;;;;;;;;;1.33;0.33;;;;;19.58;55.04;100434.94;5057691;28;45215;-62
2021/10/05 03:52:34;;;;;;;;;2.00;1.00;;;;;19.58;55.09;100436.72;5057866;28;45423;-46
2021/10/05 03:54:59;;;;;;;;;1.33;1.00;;;;;19.58;54.85;100437.63;5057862;28;45464;-46
2021/10/05 03:57:25;;;;;;;;;0.00;0.00;;;;;19.58;55.11;100440.28;5057458;28;46904;-58
2021/10/05 03:59:51;;;;;;;;;2.00;1.00;;;;;19.59;55.05;100427.81;5057514;28;45354;-46
2021/10/05 04:02:16;;;;;;;;;1.00;0.00;;;;;19.58;55.08;100428.72;5061018;28;45418;-60
2021/10/05 04:04:42;;;;;;;;;0.00;0.00;;;;;19.59;54.90;100425.13;5061370;28;45300;-58
2021/10/05 04:07:08;;;;;;;;;0.67;0.67;;;;;19.57;55.04;100417.19;5060916;28;45349;-50
2021/10/05 04:09:33;;;;;;;;;0.00;0.00;;;;;19.58;55.09;100420.72;5060906;28;45172;-52
2021/10/05 04:11:58;;;;;;;;;1.67;1.00;;;;;19.57;54.93;100403.84;5061089;28;45391;-47
2021/10/05 04:14:24;;;;;;;;;1.67;1.00;;;;;19.57;55.04;100403.84;5061145;28;45219;-52
2021/10/05 04:16:49;;;;;;;;;1.00;1.00;;;;;19.58;55.01;100407.41;5060681;28;46180;-50
2021/10/05 04:19:15;;;;;;;;;2.00;0.00;;;;;19.56;55.24;100400.31;5060746;28;45235;-49
2021/10/05 04:21:40;;;;;;;;;3.00;1.33;;;;;19.57;55.07;100398.53;5060837;28;45327;-45
2021/10/05 04:24:06;;;;;;;;;4.00;2.00;;;;;19.58;55.09;100394.06;5061129;28;45307;-48
2021/10/05 04:26:31;;;;;;;;;1.00;1.00;;;;;19.56;54.90;100386.13;5060555;28;45386;-57
2021/10/05 04:28:57;;;;;;;;;3.67;2.67;;;;;19.56;54.90;100386.97;5059248;28;45390;-47
2021/10/05 04:31:22;;;;;;;;;5.00;2.00;;;;;19.57;54.86;100379.84;5060318;28;45293;-51
2021/10/05 04:33:48;;;;;;;;;2.67;2.67;;;;;19.55;55.07;100374.56;5060899;28;45526;-48
2021/10/05 04:36:13;;;;;;;;;2.33;2.33;;;;;19.58;54.93;100370.06;5060181;28;45332;-52
2021/10/05 04:38:38;;;;;;;;;3.00;1.33;;;;;19.56;54.98;100376.31;5060536;28;45464;-56
2021/10/05 04:41:04;;;;;;;;;1.67;1.33;;;;;19.56;55.22;100376.31;5060385;28;45378;-53
2021/10/05 04:43:29;;;;;;;;;1.33;1.00;;;;;19.56;55.07;100364.78;5060838;28;45274;-60
2021/10/05 04:45:55;;;;;;;;;5.00;2.00;;;;;19.55;55.09;100361.25;5060143;28;46160;-57
2021/10/05 04:48:20;;;;;;;;;2.00;1.00;;;;;19.56;55.14;100370.97;5060170;28;45397;-52
2021/10/05 04:50:45;;;;;;;;;2.67;2.67;;;;;19.56;55.09;100362.97;5060478;28;45377;-62
2021/10/05 04:53:14;;;;;;;;;2.67;2.00;;;;;19.56;54.95;100354.13;5060421;28;45437;-63
2021/10/05 04:55:43;;;;;;;;;2.00;2.00;;;;;19.56;55.08;100344.31;5060167;28;46330;-61
2021/10/05 04:58:08;;;;;;;;;2.00;2.00;;;;;19.55;55.02;100334.59;5059972;28;45299;-46
2021/10/05 05:00:33;;;;;;;;;2.00;2.00;;;;;19.57;55.16;100334.53;5060123;28;45313;-58
2021/10/05 05:02:59;;;;;;;;;1.00;1.00;;;;;19.54;55.00;100322.16;5060144;28;45302;-62
2021/10/05 05:05:24;;;;;;;;;3.33;2.00;;;;;19.54;55.04;100326.63;5059913;28;46356;-59
2021/10/05 05:07:49;;;;;;;;;2.67;2.00;;;;;19.55;55.07;100320.38;5060050;28;45370;-52
2021/10/05 05:10:15;;;;;;;;;2.00;2.00;;;;;19.55;55.00;100331.03;5060242;28;45245;-60
2021/10/05 05:12:40;;;;;;;;;1.00;1.00;;;;;19.56;54.90;100327.47;5059582;28;45263;-61
2021/10/05 05:15:06;;;;;;;;;3.00;2.00;;;;;19.54;54.89;100314.16;5058944;28;46969;-51
2021/10/05 05:17:32;;;;;;;;;1.00;1.00;;;;;19.56;55.05;100316.81;5059565;28;45393;-64
2021/10/05 05:19:57;;;;;;;;;0.00;0.00;;;;;19.57;55.08;100310.53;5059795;28;45283;-62
2021/10/05 05:22:22;;;;;;;;;1.00;1.00;;;;;19.59;55.21;100299.81;5059950;28;45367;-60
2021/10/05 05:24:48;;;;;;;;;1.00;1.00;;;;;19.59;55.15;100300.72;5059647;28;46289;-61
2021/10/05 05:27:13;;;;;;;;;1.00;1.00;;;;;19.61;55.25;100303.31;5059744;28;45247;-63
2021/10/05 05:29:39;;;;;;;;;2.33;1.33;;;;;19.62;54.98;100294.44;5059682;28;45386;-62
2021/10/05 05:32:04;;;;;;;;;1.00;1.00;;;;;19.62;55.20;100273.09;5059667;28;45206;-61
2021/10/05 05:34:29;;;;;;;;;2.00;2.00;;;;;19.62;55.13;100270.44;5059618;28;47186;-53
2021/10/05 05:36:55;;;;;;;;;1.00;1.00;;;;;19.62;55.04;100276.66;5059430;28;45288;-60
2021/10/05 05:39:22;;;;;;;;;1.00;1.00;;;;;19.64;55.30;100281.94;5059787;28;45259;-53
2021/10/05 05:41:47;;;;;;;;;1.00;1.00;;;;;19.63;55.32;100278.38;5059520;28;45330;-48
2021/10/05 05:44:14;;;;;;;;;1.00;1.00;;;;;19.65;55.14;100273.03;5059087;28;46197;-49
2021/10/05 05:46:40;;;;;;;;;1.00;1.00;;;;;19.65;55.31;100270.38;5059548;28;45328;-50
2021/10/05 05:49:05;;;;;;;;;2.00;2.00;;;;;19.65;55.29;100268.56;5059509;28;45330;-51
2021/10/05 05:51:31;;;;;;;;;3.00;1.00;;;;;19.67;55.26;100260.53;5059439;28;45298;-50
2021/10/05 05:53:56;;;;;;;;;2.00;2.00;;;;;19.68;55.59;100259.59;5059211;28;47023;-51
2021/10/05 05:56:21;;;;;;;;;2.67;1.00;;;;;19.69;56.61;100258.69;5059195;28;45285;-55
2021/10/05 05:58:49;;;;;;;;;3.33;1.00;;;;;19.72;57.94;100253.25;5059185;28;45221;-59
2021/10/05 06:01:15;;;;;;;;;5.67;3.00;;;;;19.75;59.28;100246.97;5059422;28;45377;-58
2021/10/05 06:03:40;;;;;;;;;6.67;4.00;;;;;19.77;59.84;100246.00;5058644;28;47172;-55
2021/10/05 06:06:06;;;;;;;;;4.33;4.33;;;;;19.78;60.23;100246.88;5059024;28;45192;-46
2021/10/05 06:08:31;;;;;;;;;2.00;2.00;;;;;19.80;60.60;100245.03;5059157;28;45422;-54
2021/10/05 06:10:56;;;;;;;;;6.00;4.00;;;;;19.81;60.76;100259.25;5059221;28;45427;-50
2021/10/05 06:13:22;;;;;;;;;6.67;4.00;;;;;19.81;60.99;100240.56;5058541;28;46103;-46
2021/10/05 06:15:47;;;;;;;;;3.00;1.67;;;;;19.81;61.26;100246.78;5058834;28;45323;-50
2021/10/05 06:18:13;;;;;;;;;6.33;3.33;;;;;19.81;61.31;100240.56;5058701;28;45703;-53
2021/10/05 06:20:38;;;;;;;;;3.00;3.00;;;;;19.81;61.71;100238.78;5058807;28;45456;-54
2021/10/05 06:23:03;;;;;;;;;4.00;3.00;;;;;19.81;61.29;100219.25;5058552;28;47079;-51
2021/10/05 06:25:31;;;;;;;;;3.00;2.33;;;;;19.82;61.46;100199.66;5057640;28;45329;-53
2021/10/05 06:27:58;;;;;;;;;2.67;2.67;;;;;19.81;61.44;100209.44;5058840;28;45299;-53
2021/10/05 06:30:25;;;;;;;;;5.67;3.67;;;;;19.82;61.38;100191.66;5059015;28;45262;-52
2021/10/05 06:32:53;;;;;;;;;3.00;3.00;;;;;19.82;61.30;100207.66;5058026;28;48004;-59
2021/10/05 06:35:21;;;;;;;;;4.00;2.00;;;;;19.81;61.33;100200.56;5058241;28;45474;-56
2021/10/05 06:37:51;;;;;;;;;2.00;1.33;;;;;19.80;61.21;100191.69;5058661;28;45315;-52
2021/10/05 06:40:17;;;;;;;;;1.00;1.00;;;;;19.81;61.29;100203.25;5058571;28;45458;-59
2021/10/05 06:42:42;;;;;;;;;1.33;1.33;;;;;19.79;61.10;100200.63;5057997;28;46353;-59
2021/10/05 06:45:09;;;;;;;;;2.00;2.00;;;;;19.78;61.10;100198.88;5058663;28;45453;-53
2021/10/05 06:47:34;;;;;;;;;4.00;1.67;;;;;19.78;60.87;100204.19;5058432;28;45338;-56
2021/10/05 06:50:03;;;;;;;;;3.00;1.00;;;;;19.77;59.81;100197.13;5058621;28;45421;-52
2021/10/05 06:52:28;;;;;;;;;4.00;3.00;;;;;19.76;59.93;100198.91;5058318;28;46412;-51
2021/10/05 06:54:54;;;;;;;;;3.67;2.00;;;;;19.77;60.01;100198.00;5057539;28;45309;-51
2021/10/05 06:57:19;;;;;;;;;2.00;2.00;;;;;19.76;59.85;100196.25;5058306;28;45322;-52
2021/10/05 06:59:44;;;;;;;;;2.00;2.00;;;;;19.76;59.74;100190.91;5058616;28;45445;-52
2021/10/05 07:02:10;;;;;;;;;2.00;2.00;;;;;19.75;59.80;100183.84;5057788;28;46009;-52
2021/10/05 07:04:35;;;;;;;;;1.00;1.00;;;;;19.76;59.97;100188.25;5058125;28;45249;-53
2021/10/05 07:07:01;;;;;;;;;2.00;2.00;;;;;19.74;59.70;100184.75;5058190;28;45401;-50
2021/10/05 07:09:26;;;;;;;;;2.00;2.00;;;;;19.75;59.66;100170.53;5058592;28;45235;-58
2021/10/05 07:11:51;;;;;;;;;2.00;2.00;;;;;19.75;59.37;100178.53;5057927;28;46234;-50
2021/10/05 07:14:17;;;;;;;;;1.67;1.00;;;;;19.74;59.51;100168.75;5057952;28;45311;-58
2021/10/05 07:16:42;;;;;;;;;2.00;2.00;;;;;19.73;59.25;100167.03;5058167;28;45344;-57
2021/10/05 07:19:08;;;;;;;;;1.33;1.00;;;;;19.73;59.38;100164.34;5058245;28;45239;-52
2021/10/05 07:21:33;;;;;;;;;1.33;1.33;;;;;19.72;59.07;100167.94;5057708;28;47161;-51
2021/10/05 07:23:59;;;;;;;;;2.00;1.33;;;;;19.73;59.20;100160.81;5057830;28;45315;-59
2021/10/05 07:26:24;;;;;;;;;2.67;1.00;;;;;19.72;58.97;100151.06;5058012;28;45272;-59
2021/10/05 07:28:49;;;;;;;;;1.00;1.00;;;;;19.72;58.63;100146.59;5058134;28;45433;-52
2021/10/05 07:31:15;;;;;;;;;2.33;1.00;;;;;19.72;58.63;100140.38;5057455;28;46417;-58
2021/10/05 07:33:41;;;;;;;;;3.67;2.00;;;;;19.71;58.36;100139.53;5057629;28;45425;-52
2021/10/05 07:36:07;;;;;;;;;2.33;2.00;;;;;19.71;58.47;100133.31;5056189;28;45455;-49
2021/10/05 07:38:32;;;;;;;;;1.33;1.00;;;;;19.71;58.27;100118.19;5057669;28;45394;-55
2021/10/05 07:40:57;;;;;;;;;1.67;1.67;;;;;19.71;58.07;100114.66;5057332;28;47059;-53
2021/10/05 07:43:23;;;;;;;;;1.00;1.00;;;;;19.71;58.16;100117.31;5057739;28;45177;-56
2021/10/05 07:45:50;;;;;;;;;1.00;1.00;;;;;19.71;57.96;100118.19;5057812;28;45357;-52
2021/10/05 07:48:16;;;;;;;;;1.67;1.67;;;;;19.70;57.90;100113.78;5057821;28;45309;-47
2021/10/05 07:50:41;;;;;;;;;1.00;1.00;;;;;19.71;57.83;100107.53;5057233;28;46037;-58
2021/10/05 07:53:06;;;;;;;;;3.33;0.67;;;;;19.70;57.93;100087.09;5057308;28;45481;-57
2021/10/05 07:55:32;;;;;;;;;1.67;1.67;;;;;19.69;57.58;100088.03;5057551;28;45970;-56
2021/10/05 07:57:59;;;;;;;;;1.00;1.00;;;;;19.69;57.48;100069.38;5057602;28;45323;-55
2021/10/05 08:00:25;;;;;;;;;0.67;0.67;;;;;19.68;57.60;100062.28;5057542;28;46223;-54
2021/10/05 08:02:50;;;;;;;;;2.33;1.00;;;;;19.69;57.44;100074.72;5057234;28;45267;-58
2021/10/05 08:05:16;;;;;;;;;1.00;1.00;;;;;19.68;57.21;100059.63;5057401;28;45418;-54
2021/10/05 08:07:43;;;;;;;;;1.00;1.00;;;;;19.67;57.46;100073.88;5057761;28;45405;-53
2021/10/05 08:10:09;;;;;;;;;2.67;2.00;;;;;19.67;57.27;100084.56;5056975;28;46151;-49
2021/10/05 08:12:34;;;;;;;;;2.00;2.00;;;;;19.68;57.31;100088.94;5057082;28;45228;-60
2021/10/05 08:15:00;;;;;;;;;3.00;1.67;;;;;19.67;57.31;100085.41;5057241;28;45259;-60
2021/10/05 08:17:25;;;;;;;;;1.00;1.00;;;;;19.67;57.14;100085.41;5057197;28;45431;-58
2021/10/05 08:19:50;;;;;;;;;2.00;1.00;;;;;19.68;57.29;100075.63;5057068;28;47178;-55
2021/10/05 08:22:16;;;;;;;;;1.00;1.00;;;;;19.67;57.22;100084.56;5056909;28;45317;-51
2021/10/05 08:24:42;;;;;;;;;1.00;1.00;;;;;19.66;57.14;100081.00;5057374;28;45353;-50
2021/10/05 08:27:08;;;;;;;;;2.00;1.00;;;;;19.67;57.15;100079.22;5057270;28;45322;-56
2021/10/05 08:29:34;;;;;;;;;1.00;1.00;;;;;19.66;56.88;100061.47;5056927;28;47145;-59
2021/10/05 08:31:59;;;;;;;;;1.00;1.00;;;;;19.65;57.14;100049.91;5056844;28;45354;-45
2021/10/05 08:34:25;;;;;;;;;1.67;1.67;;;;;19.66;56.91;100058.81;5057144;28;45322;-57
2021/10/05 08:36:51;;;;;;;;;1.00;1.00;;;;;19.66;56.83;100050.81;5057188;28;45572;-60
2021/10/05 08:39:17;;;;;;;;;1.33;1.00;;;;;19.67;56.98;100057.91;5056844;28;45236;-50
2021/10/05 08:41:44;;;;;;;;;0.67;0.00;;;;;19.66;56.95;100053.47;5056928;28;45262;-47
2021/10/05 08:44:11;;;;;;;;;1.00;1.00;;;;;19.64;56.65;100042.84;5056962;28;45164;-58
2021/10/05 08:46:38;;;;;;;;;0.00;0.00;;;;;19.66;56.73;100061.47;5057064;28;45261;-55
2021/10/05 08:49:04;;;;;;;;;1.00;1.00;;;;;19.65;56.52;100041.91;5059846;28;47115;-48
2021/10/05 08:51:29;;;;;;;;;2.00;1.00;;;;;19.65;56.63;100055.25;5059981;28;45440;-51
2021/10/05 08:53:55;;;;;;;;;0.00;0.00;;;;;19.64;56.59;100041.97;5060332;28;45274;-48
2021/10/05 08:56:20;;;;;;;;;0.00;0.00;;;;;19.66;56.72;100034.81;5060353;28;45316;-57
2021/10/05 08:58:46;;;;;;;;;0.33;0.00;;;;;19.65;56.67;100046.41;5060075;28;46126;-57
2021/10/05 09:01:14;;;;;;;;;0.00;0.00;;;;;19.66;56.43;100104.13;5060062;28;45310;-55
2021/10/05 09:03:54;;;;;;;;;1.00;1.00;;;;;19.65;56.60;100161.03;5060078;28;45307;-59
2021/10/05 09:06:22;;;;;;;;;1.00;1.00;;;;;19.63;56.59;100149.56;5059929;28;45652;-49
2021/10/05 09:08:49;;;;;;;;;0.00;0.00;;;;;19.64;56.54;100153.94;5059682;28;46423;-49
2021/10/05 09:11:16;;;;;;;;;1.00;1.00;;;;;19.65;56.64;100161.03;5059904;28;45245;-52
2021/10/05 09:13:47;;;;;;;;;2.33;2.33;;;;;19.64;56.47;100165.50;5059966;28;45356;-57
2021/10/05 09:16:34;;;;;;;;;1.00;1.00;;;;;19.64;56.54;100175.28;5060069;28;45456;-53
2021/10/05 09:19:01;;;;;;;;;2.67;2.33;;;;;19.63;56.47;100171.72;5059505;28;46234;-54
2021/10/05 09:21:33;;;;;;;;;5.00;2.00;;;;;19.64;56.65;100175.28;5059299;28;45228;-52
2021/10/05 09:24:07;;;;;;;;;3.00;3.00;;;;;19.64;56.43;100183.28;5059883;28;45293;-54
2021/10/05 09:26:43;;;;;;;;;2.67;2.00;;;;;19.63;56.47;100169.06;5059838;28;45466;-57
2021/10/05 09:29:19;;;;;;;;;4.00;3.00;;;;;19.62;56.50;100167.34;5059342;28;46917;-55
2021/10/05 09:31:51;;;;;;;;;4.67;3.33;;;;;19.62;56.37;100179.78;5059176;28;45239;-58
2021/10/05 09:34:17;;;;;;;;;4.00;3.67;;;;;19.62;56.28;100170.00;5059741;28;45345;-53
2021/10/05 09:36:43;;;;;;;;;3.00;3.00;;;;;19.62;56.30;100177.13;5059738;28;45465;-59
2021/10/05 09:39:08;;;;;;;;;3.00;3.00;;;;;19.62;56.50;100177.13;5059363;28;47090;-50
2021/10/05 09:41:34;;;;;;;;;2.67;2.67;;;;;19.62;56.47;100185.13;5059343;28;45249;-52
2021/10/05 09:44:03;;;;;;;;;3.00;3.00;;;;;19.61;56.55;100197.56;5059374;28;45204;-49
2021/10/05 09:46:30;;;;;;;;;6.33;3.33;;;;;19.61;56.47;100202.00;5059434;28;45374;-57
2021/10/05 09:49:06;;;;;;;;;6.33;3.67;;;;;19.62;56.37;100211.78;5059153;28;47043;-46
2021/10/05 09:51:33;;;;;;;;;4.33;3.00;;;;;19.60;56.38;100206.50;5059330;28;45328;-54
2021/10/05 09:53:59;;;;;;;;;4.00;3.00;;;;;19.61;56.36;100210.91;5059308;28;45303;-53
2021/10/05 09:56:28;;;;;;;;;4.67;4.00;;;;;19.62;56.33;100203.78;5059456;28;45395;-57
2021/10/05 09:58:55;;;;;;;;;3.33;3.00;;;;;19.60;56.52;100211.84;5058608;28;47093;-57
2021/10/05 10:01:23;;;;;;;;;5.00;2.00;;;;;19.61;56.44;100207.34;5059317;28;45274;-51
2021/10/05 10:03:50;;;;;;;;;5.33;4.00;;;;;19.61;56.36;100212.69;5059021;28;45232;-56
2021/10/05 10:06:15;;;;;;;;;2.67;2.67;;;;;19.60;56.29;100217.16;5059160;28;45440;-54
2021/10/05 10:08:45;;;;;;;;;4.67;4.00;;;;;19.60;56.45;100222.50;5058856;28;46063;-48
2021/10/05 10:11:11;;;;;;;;;3.00;3.00;;;;;19.61;56.18;100234.00;5059042;28;45321;-49
2021/10/05 10:13:37;;;;;;;;;5.00;3.33;;;;;19.61;56.37;100239.34;5058934;28;45254;-57
2021/10/05 10:16:03;;;;;;;;;4.00;4.00;;;;;19.61;56.29;100244.69;5059299;28;45532;-46
2021/10/05 10:18:28;;;;;;;;;4.33;3.67;;;;;19.60;56.35;100245.59;5058731;28;46003;-59
2021/10/05 10:21:08;;;;;;;;;5.00;3.00;;;;;19.60;56.48;100248.28;5058913;28;45200;-58
2021/10/05 10:23:36;;;;;;;;;3.00;2.33;;;;;19.60;56.50;100253.59;5059002;28;45412;-54
2021/10/05 10:26:07;;;;;;;;;4.67;3.00;;;;;19.60;56.23;100253.59;5058797;28;45413;-55
2021/10/05 10:28:41;;;;;;;;;3.00;3.00;;;;;19.60;56.48;100254.50;5058361;28;46195;-54
2021/10/05 10:31:09;;;;;;;;;5.00;3.00;;;;;19.59;56.35;100252.72;5058725;28;45387;-58
2021/10/05 10:33:42;;;;;;;;;2.00;2.00;;;;;19.59;56.30;100263.38;5058505;28;45517;-51
2021/10/05 10:36:09;;;;;;;;;3.00;3.00;;;;;19.59;56.22;100267.84;5058783;28;45373;-51
2021/10/05 10:38:36;;;;;;;;;3.33;2.00;;;;;19.59;56.31;100268.72;5058240;28;46522;-48
2021/10/05 10:41:17;;;;;;;;;2.33;2.33;;;;;19.61;56.34;100266.00;5058364;28;45507;-51
2021/10/05 10:43:59;;;;;;;;;3.00;3.00;;;;;19.60;56.49;100288.25;5058488;28;45393;-49
2021/10/05 10:46:28;;;;;;;;;3.00;3.00;;;;;19.59;56.49;100291.84;5058670;28;45344;-53
2021/10/05 10:48:56;;;;;;;;;4.33;3.00;;;;;19.59;56.27;100294.50;5058444;28;46974;-49
2021/10/05 10:51:27;;;;;;;;;4.00;3.00;;;;;19.59;56.46;100290.06;5058252;28;45317;-57
2021/10/05 10:53:52;;;;;;;;;3.33;3.00;;;;;19.58;56.48;100293.66;5058602;28;45456;-49
2021/10/05 10:56:31;;;;;;;;;2.33;2.33;;;;;19.59;56.50;100305.16;5058440;28;45342;-58
2021/10/05 10:59:03;;;;;;;;;3.33;2.67;;;;;19.59;56.27;100297.16;5058263;28;47489;-49
2021/10/05 11:01:45;;;;;;;;;3.00;2.00;;;;;19.58;56.47;100298.97;5058176;28;45326;-48
2021/10/05 11:04:12;;;;;;;;;3.33;2.33;;;;;19.59;56.56;100307.81;5058101;28;45215;-57
2021/10/05 11:06:38;;;;;;;;;2.33;2.00;;;;;19.59;56.47;100331.81;5058204;28;45429;-50
2021/10/05 11:09:06;;;;;;;;;2.00;1.67;;;;;19.58;56.46;100322.97;5057990;28;46376;-59
2021/10/05 11:11:38;;;;;;;;;1.33;1.00;;;;;19.59;56.33;100326.50;5057165;28;45320;-54
2021/10/05 11:14:06;;;;;;;;;1.00;1.00;;;;;19.59;56.31;100329.16;5058008;28;45500;-57
2021/10/05 11:16:33;;;;;;;;;2.00;2.00;;;;;19.59;56.33;100329.16;5058038;28;45282;-50
2021/10/05 11:19:18;;;;;;;;;6.33;1.33;;;;;19.59;56.56;100324.72;5057776;28;46306;-57
2021/10/05 11:21:48;;;;;;;;;2.00;2.00;;;;;19.59;56.42;100326.50;5057689;28;45366;-50